createdAt,value
2019-04-14T00:02:32.014Z,14.00
2019-04-14T00:05:03.958Z,12.37
2019-04-14T00:07:34.049Z,13.17
2019-04-14T00:10:05.021Z,15.00
2019-04-14T00:12:35.992Z,13.73
2019-04-14T00:15:18.561Z,11.83
2019-04-14T00:17:36.930Z,14.40
2019-04-14T00:20:07.363Z,14.70
2019-04-14T00:22:38.032Z,12.83
2019-04-14T00:25:08.671Z,16.13
2019-04-14T00:27:38.863Z,16.23
2019-04-14T00:30:09.710Z,15.27
2019-04-14T00:32:55.282Z,15.03
2019-04-14T00:35:43.471Z,12.83
2019-04-14T00:38:23.862Z,14.67
2019-04-14T00:41:05.252Z,11.93
2019-04-14T00:43:54.629Z,14.53
2019-04-14T00:46:47.388Z,12.77
2019-04-14T00:49:17.958Z,13.10
2019-04-14T00:51:48.444Z,13.20
2019-04-14T00:54:17.900Z,15.30
2019-04-14T00:56:47.653Z,14.20
2019-04-14T00:59:17.936Z,16.80
2019-04-14T01:01:48.411Z,12.13
2019-04-14T01:04:18.741Z,18.37
2019-04-14T01:06:49.037Z,15.73
2019-04-14T01:09:19.392Z,14.67
2019-04-14T01:11:48.854Z,13.73
2019-04-14T01:14:19.060Z,13.93
2019-04-14T01:16:49.422Z,14.10
2019-04-14T01:19:19.872Z,13.57
2019-04-14T01:21:50.225Z,14.97
2019-04-14T01:24:20.602Z,15.63
2019-04-14T01:26:50.676Z,14.87
2019-04-14T01:29:20.951Z,12.43
2019-04-14T01:31:51.452Z,13.50
2019-04-14T01:34:21.678Z,14.47
2019-04-14T01:37:10.155Z,12.87
2019-04-14T01:39:39.486Z,14.17
2019-04-14T01:42:09.510Z,13.47
2019-04-14T01:44:39.582Z,13.70
2019-04-14T01:47:09.452Z,12.60
2019-04-14T01:49:39.734Z,14.07
2019-04-14T01:52:31.997Z,16.13
2019-04-14T01:55:24.384Z,13.57
2019-04-14T01:58:12.269Z,18.60
2019-04-14T02:00:53.966Z,15.23
2019-04-14T02:03:23.848Z,14.30
2019-04-14T02:05:53.938Z,15.77
2019-04-14T02:08:24.078Z,16.80
2019-04-14T02:10:54.373Z,15.30
2019-04-14T02:13:24.708Z,16.10
2019-04-14T02:15:54.999Z,16.13
2019-04-14T02:18:25.077Z,14.97
2019-04-14T02:20:55.655Z,16.70
2019-04-14T02:23:25.788Z,17.73
2019-04-14T02:25:55.760Z,16.63
2019-04-14T02:28:26.367Z,15.23
2019-04-14T02:31:03.273Z,15.83
2019-04-14T02:33:50.475Z,15.38
2019-04-14T02:36:36.382Z,14.03
2019-04-14T02:39:01.805Z,16.13
2019-04-14T02:44:15.888Z,19.20
2019-04-14T02:46:32.044Z,16.47
2019-04-14T02:48:58.742Z,14.90
2019-04-14T02:51:35.033Z,16.63
2019-04-14T02:56:28.082Z,15.50
2019-04-14T03:04:04.140Z,15.20
2019-04-14T03:06:41.422Z,17.57
2019-04-14T03:09:19.482Z,17.57
2019-04-14T03:11:48.856Z,17.63
2019-04-14T03:14:21.451Z,19.27
2019-04-14T03:20:15.298Z,19.03
2019-04-14T03:22:43.793Z,17.50
2019-04-14T03:25:27.700Z,17.23
2019-04-14T03:34:21.392Z,19.97
2019-04-14T03:44:01.623Z,18.47
2019-04-14T03:49:26.316Z,19.97
2019-04-14T03:51:44.743Z,19.03
2019-04-14T03:54:03.631Z,19.47
2019-04-14T03:56:53.556Z,17.40
2019-04-14T03:59:24.036Z,20.73
2019-04-14T04:01:54.421Z,18.20
2019-04-14T04:04:25.018Z,18.23
2019-04-14T04:06:55.367Z,20.83
2019-04-14T04:09:32.174Z,21.40
2019-04-14T04:12:01.426Z,21.30
2019-04-14T04:14:31.329Z,16.90
2019-04-14T04:17:18.998Z,18.57
2019-04-14T04:19:57.664Z,19.83
2019-04-14T04:22:46.139Z,17.67
2019-04-14T04:25:33.321Z,23.27
2019-04-14T04:28:25.591Z,18.17
2019-04-14T04:31:26.445Z,20.43
2019-04-14T04:34:05.920Z,18.60
2019-04-14T04:37:00.326Z,20.43
2019-04-14T04:39:35.257Z,26.17
2019-04-14T04:42:04.817Z,46.40
2019-04-14T04:44:35.533Z,53.47
2019-04-14T04:47:05.677Z,38.80
2019-04-14T04:49:36.172Z,42.00
2019-04-14T04:52:06.288Z,41.40
2019-04-14T04:54:36.402Z,43.43
2019-04-14T04:57:06.797Z,25.47
2019-04-14T04:59:36.748Z,23.57
2019-04-14T05:02:07.034Z,23.10
2019-04-14T05:04:37.311Z,18.30
2019-04-14T05:07:07.789Z,18.57
2019-04-14T05:09:55.626Z,15.47
2019-04-14T05:12:43.546Z,18.93
2019-04-14T05:15:31.255Z,22.57
2019-04-14T05:18:00.706Z,18.33
2019-04-14T05:20:31.278Z,18.77
2019-04-14T05:23:01.589Z,20.93
2019-04-14T05:25:31.800Z,23.97
2019-04-14T05:28:02.561Z,21.57
2019-04-14T05:30:32.874Z,20.10
2019-04-14T05:33:03.056Z,19.37
2019-04-14T05:35:33.392Z,20.10
2019-04-14T05:38:04.076Z,20.03
2019-04-14T05:40:34.277Z,17.67
2019-04-14T05:43:04.534Z,19.17
2019-04-14T05:45:35.044Z,20.50
2019-04-14T05:48:05.342Z,18.77
2019-04-14T05:50:37.938Z,20.27
2019-04-14T05:53:08.567Z,17.30
2019-04-14T05:55:38.024Z,19.77
2019-04-14T05:58:07.939Z,16.60
2019-04-14T06:00:39.040Z,20.53
2019-04-14T06:03:08.414Z,19.43
2019-04-14T06:05:38.269Z,16.83
2019-04-14T06:08:07.677Z,19.77
2019-04-14T06:10:37.095Z,18.63
2019-04-14T06:13:06.429Z,20.43
2019-04-14T06:15:37.998Z,17.30
2019-04-14T06:18:07.351Z,18.17
2019-04-14T06:20:36.765Z,18.33
2019-04-14T06:23:06.234Z,20.60
2019-04-14T06:25:36.443Z,17.37
2019-04-14T06:28:05.855Z,16.40
2019-04-14T06:31:09.376Z,17.60
2019-04-14T06:33:53.724Z,42.27
2019-04-14T06:36:34.949Z,40.13
2019-04-14T06:39:11.804Z,16.40
2019-04-14T06:41:41.183Z,18.00
2019-04-14T06:44:11.633Z,16.63
2019-04-14T06:46:40.947Z,18.07
2019-04-14T06:49:10.349Z,16.03
2019-04-14T06:51:39.635Z,18.80
2019-04-14T06:54:09.031Z,16.33
2019-04-14T06:56:38.422Z,19.67
2019-04-14T06:59:07.752Z,18.50
2019-04-14T07:01:38.992Z,16.23
2019-04-14T07:04:08.269Z,16.60
2019-04-14T07:06:37.594Z,19.90
2019-04-14T07:09:07.497Z,19.03
2019-04-14T07:11:36.871Z,16.80
2019-04-14T07:14:06.279Z,17.27
2019-04-14T07:16:35.668Z,15.43
2019-04-14T07:19:05.054Z,15.90
2019-04-14T07:21:34.364Z,16.40
2019-04-14T07:24:03.735Z,17.60
2019-04-14T07:26:33.220Z,16.80
2019-04-14T07:29:02.660Z,16.63
2019-04-14T07:32:06.403Z,17.27
2019-04-14T07:34:54.781Z,19.30
2019-04-14T07:37:36.839Z,19.00
2019-04-14T07:40:27.622Z,16.70
2019-04-14T07:43:22.095Z,18.47
2019-04-14T07:46:01.378Z,18.83
2019-04-14T07:48:35.373Z,16.93
2019-04-14T07:51:22.343Z,16.03
2019-04-14T07:54:13.877Z,18.17
2019-04-14T07:57:11.326Z,17.07
2019-04-14T08:00:02.483Z,15.30
2019-04-14T08:02:38.499Z,15.37
2019-04-14T08:05:11.453Z,17.73
2019-04-14T08:07:41.057Z,19.27
2019-04-14T08:10:10.741Z,15.33
2019-04-14T08:12:40.141Z,16.10
2019-04-14T08:15:09.733Z,16.50
2019-04-14T08:17:39.151Z,17.07
2019-04-14T08:20:08.643Z,15.63
2019-04-14T08:22:38.088Z,16.50
2019-04-14T08:25:07.605Z,15.60
2019-04-14T08:27:37.016Z,17.43
2019-04-14T08:30:07.554Z,21.17
2019-04-14T08:32:36.965Z,17.20
2019-04-14T08:35:06.594Z,19.27
2019-04-14T08:37:35.945Z,20.37
2019-04-14T08:40:06.126Z,17.00
2019-04-14T08:43:03.839Z,23.07
2019-04-14T08:45:46.149Z,21.00
2019-04-14T08:48:40.483Z,17.73
2019-04-14T08:51:17.520Z,22.23
2019-04-14T08:54:14.818Z,17.17
2019-04-14T08:56:50.588Z,19.27
2019-04-14T08:59:34.631Z,17.27
2019-04-14T09:02:25.777Z,19.17
2019-04-14T09:05:08.842Z,17.53
2019-04-14T09:08:03.260Z,18.00
2019-04-14T09:10:37.403Z,17.20
2019-04-14T09:13:06.774Z,17.20
2019-04-14T09:15:36.185Z,18.20
2019-04-14T09:18:05.599Z,17.40
2019-04-14T09:20:35.041Z,18.10
2019-04-14T09:23:04.414Z,19.73
2019-04-14T09:25:33.739Z,19.97
2019-04-14T09:28:03.133Z,16.97
2019-04-14T09:30:32.677Z,17.00
2019-04-14T09:33:02.039Z,16.87
2019-04-14T09:35:31.495Z,19.23
2019-04-14T09:38:00.889Z,17.90
2019-04-14T09:40:30.333Z,17.97
2019-04-14T09:42:59.755Z,17.93
2019-04-14T09:45:29.216Z,17.97
2019-04-14T09:47:58.594Z,16.90
2019-04-14T09:50:31.870Z,18.53
2019-04-14T09:53:03.831Z,16.50
2019-04-14T09:56:07.112Z,17.57
2019-04-14T09:58:41.201Z,17.47
2019-04-14T10:01:18.785Z,20.73
2019-04-14T10:03:48.200Z,25.77
2019-04-14T10:06:17.623Z,19.23
2019-04-14T10:08:46.952Z,19.13
2019-04-14T10:11:16.402Z,18.37
2019-04-14T10:13:45.772Z,17.27
2019-04-14T10:16:15.133Z,17.87
2019-04-14T10:18:44.504Z,18.50
2019-04-14T10:21:17.655Z,18.00
2019-04-14T10:23:44.878Z,18.13
2019-04-14T10:26:14.372Z,17.60
2019-04-14T10:28:43.766Z,16.07
2019-04-14T10:31:13.095Z,18.67
2019-04-14T10:33:42.508Z,18.27
2019-04-14T10:36:11.816Z,16.77
2019-04-14T10:38:43.044Z,17.03
2019-04-14T10:41:12.366Z,19.20
2019-04-14T10:43:41.774Z,18.93
2019-04-14T10:46:11.103Z,54.80
2019-04-14T10:48:40.510Z,18.70
2019-04-14T10:51:09.891Z,19.40
2019-04-14T10:53:39.216Z,17.03
2019-04-14T10:56:08.612Z,19.53
2019-04-14T10:58:38.094Z,18.50
2019-04-14T11:01:07.476Z,18.10
2019-04-14T11:03:36.972Z,17.63
2019-04-14T11:06:28.398Z,15.30
2019-04-14T11:08:57.821Z,18.23
2019-04-14T11:11:27.161Z,17.27
2019-04-14T11:13:56.522Z,17.57
2019-04-14T11:16:25.922Z,18.47
2019-04-14T11:18:55.275Z,19.60
2019-04-14T11:21:24.566Z,21.00
2019-04-14T11:23:53.981Z,19.87
2019-04-14T11:26:23.342Z,19.87
2019-04-14T11:28:52.675Z,21.03
2019-04-14T11:31:49.888Z,24.40
2019-04-14T11:34:20.287Z,20.13
2019-04-14T11:37:08.726Z,19.17
2019-04-14T11:39:38.114Z,18.80
2019-04-14T11:42:07.478Z,17.90
2019-04-14T11:44:37.040Z,18.47
2019-04-14T11:47:06.526Z,19.47
2019-04-14T11:49:35.917Z,18.60
2019-04-14T11:52:05.441Z,19.93
2019-04-14T11:54:34.736Z,20.17
2019-04-14T11:57:04.192Z,18.97
2019-04-14T11:59:42.701Z,18.80
2019-04-14T12:02:26.308Z,20.07
2019-04-14T12:05:05.545Z,19.37
2019-04-14T12:07:51.058Z,20.23
2019-04-14T12:10:24.738Z,20.07
2019-04-14T12:12:54.240Z,20.80
2019-04-14T12:15:23.833Z,18.77
2019-04-14T12:17:53.230Z,20.57
2019-04-14T12:20:22.665Z,20.97
2019-04-14T12:22:52.076Z,19.43
2019-04-14T12:25:21.595Z,19.93
2019-04-14T12:27:51.265Z,19.90
2019-04-14T12:30:20.792Z,19.97
2019-04-14T12:32:50.213Z,19.10
2019-04-14T12:35:19.799Z,18.67
2019-04-14T12:37:49.350Z,19.20
2019-04-14T12:40:18.835Z,18.03
2019-04-14T12:42:57.069Z,17.47
2019-04-14T12:45:48.753Z,18.87
2019-04-14T12:48:35.671Z,18.97
2019-04-14T12:51:12.640Z,18.63
2019-04-14T12:53:42.088Z,18.23
2019-04-14T12:56:11.794Z,21.53
2019-04-14T12:58:49.267Z,18.13
2019-04-14T13:01:18.975Z,19.67
2019-04-14T13:03:48.317Z,19.87
2019-04-14T13:06:17.598Z,21.07
2019-04-14T13:08:47.075Z,19.00
2019-04-14T13:11:16.509Z,18.57
2019-04-14T13:13:47.026Z,19.03
2019-04-14T13:16:16.506Z,19.97
2019-04-14T13:21:10.501Z,18.47
2019-04-14T13:23:39.816Z,18.23
2019-04-14T13:26:09.172Z,19.37
2019-04-14T13:28:38.454Z,19.03
2019-04-14T13:31:07.884Z,18.00
2019-04-14T13:33:37.182Z,20.60
2019-04-14T13:36:06.802Z,19.23
2019-04-14T13:38:36.159Z,17.53
2019-04-14T13:41:05.460Z,17.03
2019-04-14T13:43:34.871Z,18.30
2019-04-14T13:46:04.346Z,18.20
2019-04-14T13:48:33.668Z,19.40
2019-04-14T13:51:03.059Z,18.20
2019-04-14T13:53:32.542Z,17.53
2019-04-14T13:56:02.003Z,18.63
2019-04-14T13:58:33.030Z,19.80
2019-04-14T14:01:02.463Z,17.63
2019-04-14T14:03:31.832Z,18.23
2019-04-14T14:06:01.143Z,17.83
2019-04-14T14:08:30.560Z,19.20
2019-04-14T14:11:08.532Z,20.73
2019-04-14T14:13:43.954Z,18.80
2019-04-14T14:16:30.921Z,17.13
2019-04-14T14:19:11.347Z,18.57
2019-04-14T14:21:51.019Z,20.20
2019-04-14T14:24:39.440Z,18.40
2019-04-14T14:27:09.589Z,18.53
2019-04-14T14:29:38.965Z,19.57
2019-04-14T14:32:15.056Z,18.47
2019-04-14T14:34:44.553Z,18.47
2019-04-14T14:37:13.874Z,22.50
2019-04-14T14:39:43.262Z,19.40
2019-04-14T14:42:12.690Z,17.93
2019-04-14T14:44:46.783Z,20.33
2019-04-14T14:47:22.111Z,18.90
2019-04-14T14:50:17.774Z,18.62
2019-04-14T14:52:47.137Z,20.23
2019-04-14T14:55:16.627Z,18.17
2019-04-14T14:57:46.074Z,18.53
2019-04-14T15:00:26.363Z,18.00
2019-04-14T15:02:55.759Z,18.83
2019-04-14T15:05:25.098Z,20.40
2019-04-14T15:07:54.647Z,16.13
2019-04-14T15:10:25.410Z,17.47
2019-04-14T15:12:56.003Z,15.63
2019-04-14T15:15:25.423Z,18.70
2019-04-14T15:17:54.722Z,17.70
2019-04-14T15:20:25.623Z,16.80
2019-04-14T15:22:55.010Z,17.30
2019-04-14T15:25:24.464Z,16.77
2019-04-14T15:27:53.894Z,16.97
2019-04-14T15:30:23.948Z,16.03
2019-04-14T15:32:53.382Z,15.87
2019-04-14T15:35:22.705Z,16.60
2019-04-14T15:37:52.057Z,18.73
2019-04-14T15:40:21.383Z,19.27
2019-04-14T15:42:50.814Z,16.00
2019-04-14T15:45:20.200Z,16.70
2019-04-14T15:47:49.556Z,15.07
2019-04-14T15:50:18.955Z,14.20
2019-04-14T15:52:48.338Z,17.00
2019-04-14T15:55:18.690Z,14.90
2019-04-14T15:57:59.541Z,14.63
2019-04-14T16:00:46.902Z,17.67
2019-04-14T16:03:33.988Z,15.90
2019-04-14T16:06:16.452Z,14.97
2019-04-14T16:08:52.676Z,14.90
2019-04-14T16:11:30.818Z,15.00
2019-04-14T16:14:19.272Z,16.10
2019-04-14T16:17:05.453Z,16.27
2019-04-14T16:19:43.828Z,15.00
2019-04-14T16:22:13.145Z,15.07
2019-04-14T16:24:42.484Z,14.53
2019-04-14T16:27:33.860Z,14.17
2019-04-14T16:30:19.757Z,12.83
2019-04-14T16:33:07.014Z,14.30
2019-04-14T16:35:36.423Z,14.83
2019-04-14T16:38:05.930Z,16.20
2019-04-14T16:40:35.950Z,13.73
2019-04-14T16:43:05.324Z,15.50
2019-04-14T16:45:34.737Z,14.13
2019-04-14T16:48:04.268Z,13.63
2019-04-14T16:50:33.724Z,16.80
2019-04-14T16:53:14.406Z,17.10
2019-04-14T16:56:02.725Z,14.33
2019-04-14T16:58:37.867Z,17.63
2019-04-14T17:01:10.155Z,15.57
2019-04-14T17:03:39.580Z,17.53
2019-04-14T17:06:08.978Z,18.37
2019-04-14T17:08:38.355Z,12.53
2019-04-14T17:11:07.855Z,15.60
2019-04-14T17:13:40.329Z,15.37
2019-04-14T17:16:27.888Z,14.83
2019-04-14T17:19:06.004Z,24.50
2019-04-14T17:21:45.075Z,28.40
2019-04-14T17:24:31.596Z,25.67
2019-04-14T17:27:15.884Z,28.70
2019-04-14T17:29:50.609Z,23.80
2019-04-14T17:32:25.678Z,17.37
2019-04-14T17:35:33.575Z,16.63
2019-04-14T17:38:13.592Z,16.57
2019-04-14T17:41:01.943Z,14.50
2019-04-14T17:43:38.600Z,15.43
2019-04-14T17:46:25.681Z,14.60
2019-04-14T17:49:23.118Z,17.57
2019-04-14T17:52:20.831Z,15.27
2019-04-14T17:55:01.701Z,13.97
2019-04-14T17:57:59.122Z,18.30
2019-04-14T18:00:33.830Z,16.77
2019-04-14T18:03:06.978Z,17.37
2019-04-14T18:05:40.503Z,15.60
2019-04-14T18:08:28.505Z,12.93
2019-04-14T18:11:06.918Z,15.53
2019-04-14T18:13:43.963Z,15.50
2019-04-14T18:16:30.256Z,12.93
2019-04-14T18:19:18.650Z,15.43
2019-04-14T18:21:48.040Z,15.43
2019-04-14T18:24:17.476Z,13.93
2019-04-14T18:26:46.807Z,14.87
2019-04-14T18:29:33.674Z,12.23
2019-04-14T18:32:08.001Z,14.37
2019-04-14T18:34:59.284Z,11.07
2019-04-14T18:37:32.992Z,11.97
2019-04-14T18:40:21.089Z,12.20
2019-04-14T18:43:10.297Z,15.53
2019-04-14T18:46:07.582Z,11.47
2019-04-14T18:48:55.954Z,10.87
2019-04-14T18:51:31.271Z,12.23
2019-04-14T18:54:34.932Z,11.93
2019-04-14T18:57:38.721Z,12.83
2019-04-14T19:00:33.093Z,11.07
2019-04-14T19:03:02.498Z,10.93
2019-04-14T19:05:31.892Z,12.03
2019-04-14T19:08:01.199Z,12.43
2019-04-14T19:10:30.588Z,11.50
2019-04-14T19:13:14.809Z,12.90
2019-04-14T19:15:47.613Z,12.03
2019-04-14T19:18:25.754Z,12.43
2019-04-14T19:20:57.744Z,15.57
2019-04-14T19:23:27.141Z,10.63
2019-04-14T19:25:56.498Z,12.60
2019-04-14T19:28:25.831Z,12.03
2019-04-14T19:30:55.126Z,14.43
2019-04-14T19:33:24.501Z,13.63
2019-04-14T19:35:53.820Z,12.33
2019-04-14T19:38:23.120Z,13.30
2019-04-14T19:40:52.404Z,11.27
2019-04-14T19:43:23.884Z,10.40
2019-04-14T19:45:52.828Z,13.40
2019-04-14T19:48:22.368Z,11.50
2019-04-14T19:50:51.746Z,11.77
2019-04-14T19:53:21.061Z,11.13
2019-04-14T19:55:50.425Z,11.03
2019-04-14T19:58:19.787Z,10.33
2019-04-14T20:00:49.158Z,10.37
2019-04-14T20:03:18.558Z,11.47
2019-04-14T20:05:47.935Z,9.83
2019-04-14T20:08:17.277Z,10.23
2019-04-14T20:10:46.599Z,12.40
2019-04-14T20:13:15.965Z,10.50
2019-04-14T20:15:58.402Z,9.33
2019-04-14T20:18:47.987Z,9.83
2019-04-14T20:21:40.657Z,8.67
2019-04-14T20:24:24.491Z,9.60
2019-04-14T20:27:10.017Z,8.83
2019-04-14T20:29:42.579Z,9.00
2019-04-14T20:32:14.866Z,10.50
2019-04-14T20:34:44.167Z,10.73
2019-04-14T20:37:13.585Z,9.63
2019-04-14T20:39:43.017Z,9.00
2019-04-14T20:42:12.848Z,8.47
2019-04-14T20:44:42.238Z,9.50
2019-04-14T20:47:11.571Z,8.20
2019-04-14T20:49:40.945Z,8.07
2019-04-14T20:52:10.462Z,6.37
2019-04-14T20:54:39.887Z,7.67
2019-04-14T20:57:09.281Z,7.40
2019-04-14T20:59:38.680Z,8.33
2019-04-14T21:02:26.510Z,7.47
2019-04-14T21:05:07.463Z,6.53
2019-04-14T21:07:54.767Z,7.47
2019-04-14T21:10:35.377Z,8.83
2019-04-14T21:13:22.413Z,7.23
2019-04-14T21:16:13.107Z,9.63
2019-04-14T21:19:07.335Z,8.93
2019-04-14T21:21:56.905Z,8.47
2019-04-14T21:24:50.320Z,5.53
2019-04-14T21:27:31.596Z,8.20
2019-04-14T21:30:20.146Z,7.60
2019-04-14T21:33:10.382Z,10.73
2019-04-14T21:35:49.777Z,7.40
2019-04-14T21:38:26.199Z,8.63
2019-04-14T21:41:06.703Z,6.27
2019-04-14T21:43:36.147Z,7.70
2019-04-14T21:46:05.574Z,6.33
2019-04-14T21:48:34.882Z,10.03
2019-04-14T21:51:04.207Z,7.50
2019-04-14T21:53:33.557Z,5.60
2019-04-14T21:56:12.728Z,6.73
2019-04-14T21:58:44.685Z,7.30
2019-04-14T22:01:54.930Z,10.03
2019-04-14T22:04:46.661Z,6.07
2019-04-14T22:07:41.170Z,6.90
2019-04-14T22:10:29.641Z,6.23
2019-04-14T22:12:59.295Z,6.17
2019-04-14T22:15:28.639Z,6.27
2019-04-14T22:17:58.790Z,8.03
2019-04-14T22:20:28.400Z,10.27
2019-04-14T22:22:58.243Z,9.40
2019-04-14T22:25:27.964Z,6.77
2019-04-14T22:27:57.355Z,6.93
2019-04-14T22:30:27.362Z,6.35
2019-04-14T22:32:56.753Z,10.70
2019-04-14T22:35:26.087Z,8.03
2019-04-14T22:37:55.468Z,6.03
2019-04-14T22:40:24.767Z,4.97
2019-04-14T22:42:54.530Z,6.10
2019-04-14T22:45:23.853Z,5.67
2019-04-14T22:47:53.353Z,8.03
2019-04-14T22:50:22.582Z,4.93
2019-04-14T22:52:52.030Z,8.83
2019-04-14T22:55:21.379Z,7.43
2019-04-14T22:57:50.783Z,7.03
2019-04-14T23:00:50.297Z,6.13
2019-04-14T23:03:27.368Z,5.80
2019-04-14T23:06:12.608Z,8.77
2019-04-14T23:08:48.938Z,8.80
2019-04-14T23:11:52.636Z,6.87
2019-04-14T23:14:40.978Z,6.10
2019-04-14T23:17:28.388Z,8.00
2019-04-14T23:20:01.774Z,7.03
2019-04-14T23:22:42.117Z,6.23
2019-04-14T23:25:11.426Z,5.67
2019-04-14T23:27:40.745Z,6.60
2019-04-14T23:30:29.244Z,6.80
2019-04-14T23:32:58.632Z,6.40
2019-04-14T23:35:47.035Z,6.03
2019-04-14T23:38:16.418Z,5.70
2019-04-14T23:40:45.735Z,6.47
2019-04-14T23:43:16.084Z,5.90
2019-04-14T23:45:45.423Z,5.63
2019-04-14T23:48:14.710Z,7.43
2019-04-14T23:50:44.133Z,7.73
2019-04-14T23:53:13.431Z,7.33
2019-04-14T23:55:42.854Z,7.30
2019-04-14T23:58:12.276Z,6.60
